X  Fermer Observations météorologiques des aéroports: METeorological Aerodrome Report.        LFLY LYON
Température
19°C Température
16°C Point de rosée
83% Humidité



Vent
7 KM/H
5 MPH
2 M/S
4 KTS



330°
NNO
Conditions actuelles

Mostly Clear Peu nuageux
Pression 1017 (hPa) - 30.02 (inHg)
Visibilité 7 (miles) - 11 (km)
Temps actuel Metar LYON
Code de l'aéroport LFLY

Emplacement: LYON
Distance: 67 (km)

Metar:
METAR LFLY 161930Z AUTO 33004KT CAVOK 19/16 Q1017 NOSIG

Temps: 16-09-2021 21:30 CEST